sensor_id;sensor_type;location;lat;lon;timestamp;P1;durP1;ratioP1;P2;durP2;ratioP2
66546;SDS011;53400;50.364;14.874;2023-05-07T00:02:21;16.25;;;9.30;;
66546;SDS011;53400;50.364;14.874;2023-05-07T00:04:48;19.75;;;11.38;;
66546;SDS011;53400;50.364;14.874;2023-05-07T00:07:15;17.48;;;10.00;;
66546;SDS011;53400;50.364;14.874;2023-05-07T00:09:41;16.55;;;9.70;;
66546;SDS011;53400;50.364;14.874;2023-05-07T00:12:07;16.38;;;8.65;;
66546;SDS011;53400;50.364;14.874;2023-05-07T00:14:33;16.10;;;8.05;;
66546;SDS011;53400;50.364;14.874;2023-05-07T00:16:59;16.48;;;8.88;;
66546;SDS011;53400;50.364;14.874;2023-05-07T00:19:25;15.63;;;8.07;;
66546;SDS011;53400;50.364;14.874;2023-05-07T00:21:51;19.02;;;8.93;;
66546;SDS011;53400;50.364;14.874;2023-05-07T00:24:21;28.65;;;11.95;;
66546;SDS011;53400;50.364;14.874;2023-05-07T00:26:46;19.63;;;10.30;;
66546;SDS011;53400;50.364;14.874;2023-05-07T00:29:13;21.48;;;9.75;;
66546;SDS011;53400;50.364;14.874;2023-05-07T00:31:38;18.52;;;10.50;;
66546;SDS011;53400;50.364;14.874;2023-05-07T00:34:05;18.00;;;9.45;;
66546;SDS011;53400;50.364;14.874;2023-05-07T00:36:31;17.52;;;9.82;;
66546;SDS011;53400;50.364;14.874;2023-05-07T00:38:59;16.55;;;9.65;;
66546;SDS011;53400;50.364;14.874;2023-05-07T00:41:28;15.90;;;9.45;;
66546;SDS011;53400;50.364;14.874;2023-05-07T00:43:56;18.48;;;9.98;;
66546;SDS011;53400;50.364;14.874;2023-05-07T00:46:22;16.52;;;8.88;;
66546;SDS011;53400;50.364;14.874;2023-05-07T00:48:48;16.38;;;8.73;;
66546;SDS011;53400;50.364;14.874;2023-05-07T00:51:15;16.58;;;8.88;;
66546;SDS011;53400;50.364;14.874;2023-05-07T00:53:42;16.70;;;8.60;;
66546;SDS011;53400;50.364;14.874;2023-05-07T00:56:08;16.17;;;8.50;;
66546;SDS011;53400;50.364;14.874;2023-05-07T00:58:36;14.50;;;8.82;;
66546;SDS011;53400;50.364;14.874;2023-05-07T01:01:02;15.30;;;8.38;;
66546;SDS011;53400;50.364;14.874;2023-05-07T01:03:29;15.10;;;8.50;;
66546;SDS011;53400;50.364;14.874;2023-05-07T01:05:55;14.48;;;8.23;;
66546;SDS011;53400;50.364;14.874;2023-05-07T01:08:23;12.25;;;7.15;;
66546;SDS011;53400;50.364;14.874;2023-05-07T01:10:51;12.75;;;7.57;;
66546;SDS011;53400;50.364;14.874;2023-05-07T01:13:19;13.25;;;7.35;;
66546;SDS011;53400;50.364;14.874;2023-05-07T01:15:47;12.73;;;7.28;;
66546;SDS011;53400;50.364;14.874;2023-05-07T01:18:13;13.75;;;8.35;;
66546;SDS011;53400;50.364;14.874;2023-05-07T01:20:39;14.00;;;7.50;;
66546;SDS011;53400;50.364;14.874;2023-05-07T01:23:07;12.77;;;7.25;;
66546;SDS011;53400;50.364;14.874;2023-05-07T01:25:34;13.45;;;7.13;;
66546;SDS011;53400;50.364;14.874;2023-05-07T01:28:00;13.52;;;7.70;;
66546;SDS011;53400;50.364;14.874;2023-05-07T01:30:26;11.77;;;7.63;;
66546;SDS011;53400;50.364;14.874;2023-05-07T01:32:56;12.15;;;7.53;;
66546;SDS011;53400;50.364;14.874;2023-05-07T01:35:27;13.30;;;7.10;;
66546;SDS011;53400;50.364;14.874;2023-05-07T01:37:56;12.77;;;7.75;;
66546;SDS011;53400;50.364;14.874;2023-05-07T01:40:23;12.70;;;7.35;;
66546;SDS011;53400;50.364;14.874;2023-05-07T01:42:51;13.95;;;7.43;;
66546;SDS011;53400;50.364;14.874;2023-05-07T01:45:18;12.77;;;7.07;;
66546;SDS011;53400;50.364;14.874;2023-05-07T01:47:44;12.60;;;7.38;;
66546;SDS011;53400;50.364;14.874;2023-05-07T01:50:10;11.48;;;6.78;;
66546;SDS011;53400;50.364;14.874;2023-05-07T01:52:38;11.02;;;6.82;;
66546;SDS011;53400;50.364;14.874;2023-05-07T01:55:04;11.57;;;7.22;;
66546;SDS011;53400;50.364;14.874;2023-05-07T01:57:32;11.80;;;6.80;;
66546;SDS011;53400;50.364;14.874;2023-05-07T01:59:58;11.95;;;6.80;;
66546;SDS011;53400;50.364;14.874;2023-05-07T02:02:24;12.75;;;6.82;;
66546;SDS011;53400;50.364;14.874;2023-05-07T02:04:50;12.25;;;6.78;;
66546;SDS011;53400;50.364;14.874;2023-05-07T02:07:16;12.57;;;7.03;;
66546;SDS011;53400;50.364;14.874;2023-05-07T02:09:42;13.63;;;7.47;;
66546;SDS011;53400;50.364;14.874;2023-05-07T02:12:08;13.75;;;7.93;;
66546;SDS011;53400;50.364;14.874;2023-05-07T02:14:35;13.10;;;6.97;;
66546;SDS011;53400;50.364;14.874;2023-05-07T02:17:01;12.10;;;7.10;;
66546;SDS011;53400;50.364;14.874;2023-05-07T02:19:27;12.07;;;7.28;;
66546;SDS011;53400;50.364;14.874;2023-05-07T02:21:53;13.20;;;7.55;;
66546;SDS011;53400;50.364;14.874;2023-05-07T02:24:19;12.52;;;6.85;;
66546;SDS011;53400;50.364;14.874;2023-05-07T02:26:45;12.48;;;6.97;;
66546;SDS011;53400;50.364;14.874;2023-05-07T02:29:11;11.82;;;6.80;;
66546;SDS011;53400;50.364;14.874;2023-05-07T02:31:39;13.80;;;7.00;;
66546;SDS011;53400;50.364;14.874;2023-05-07T02:34:04;12.75;;;7.22;;
66546;SDS011;53400;50.364;14.874;2023-05-07T02:36:30;11.98;;;6.80;;
66546;SDS011;53400;50.364;14.874;2023-05-07T02:38:56;13.63;;;7.35;;
66546;SDS011;53400;50.364;14.874;2023-05-07T02:41:22;12.20;;;7.30;;
66546;SDS011;53400;50.364;14.874;2023-05-07T02:43:48;13.75;;;7.30;;
66546;SDS011;53400;50.364;14.874;2023-05-07T02:46:14;12.43;;;7.20;;
66546;SDS011;53400;50.364;14.874;2023-05-07T02:48:42;13.68;;;7.65;;
66546;SDS011;53400;50.364;14.874;2023-05-07T02:51:08;12.65;;;7.68;;
66546;SDS011;53400;50.364;14.874;2023-05-07T02:53:34;13.73;;;7.78;;
66546;SDS011;53400;50.364;14.874;2023-05-07T02:56:00;14.07;;;8.05;;
66546;SDS011;53400;50.364;14.874;2023-05-07T02:58:27;15.15;;;8.02;;
66546;SDS011;53400;50.364;14.874;2023-05-07T03:00:54;13.93;;;7.75;;
66546;SDS011;53400;50.364;14.874;2023-05-07T03:03:22;13.85;;;7.85;;
66546;SDS011;53400;50.364;14.874;2023-05-07T03:05:50;14.57;;;8.85;;
66546;SDS011;53400;50.364;14.874;2023-05-07T03:08:16;13.63;;;7.90;;
66546;SDS011;53400;50.364;14.874;2023-05-07T03:10:42;16.60;;;9.02;;
66546;SDS011;53400;50.364;14.874;2023-05-07T03:13:08;16.38;;;8.05;;
66546;SDS011;53400;50.364;14.874;2023-05-07T03:15:34;15.13;;;8.40;;
66546;SDS011;53400;50.364;14.874;2023-05-07T03:18:00;14.15;;;8.43;;
66546;SDS011;53400;50.364;14.874;2023-05-07T03:20:26;13.98;;;8.15;;
66546;SDS011;53400;50.364;14.874;2023-05-07T03:22:53;14.32;;;8.40;;
66546;SDS011;53400;50.364;14.874;2023-05-07T03:25:19;16.42;;;9.10;;
66546;SDS011;53400;50.364;14.874;2023-05-07T03:27:45;16.08;;;9.02;;
66546;SDS011;53400;50.364;14.874;2023-05-07T03:30:12;15.38;;;8.85;;
66546;SDS011;53400;50.364;14.874;2023-05-07T03:32:38;14.98;;;8.50;;
66546;SDS011;53400;50.364;14.874;2023-05-07T03:35:04;15.63;;;8.77;;
66546;SDS011;53400;50.364;14.874;2023-05-07T03:37:30;16.00;;;8.95;;
66546;SDS011;53400;50.364;14.874;2023-05-07T03:39:58;15.98;;;8.57;;
66546;SDS011;53400;50.364;14.874;2023-05-07T03:42:24;14.18;;;8.00;;
66546;SDS011;53400;50.364;14.874;2023-05-07T03:44:50;14.93;;;8.50;;
66546;SDS011;53400;50.364;14.874;2023-05-07T03:47:16;15.20;;;7.95;;
66546;SDS011;53400;50.364;14.874;2023-05-07T03:49:42;16.48;;;8.60;;
66546;SDS011;53400;50.364;14.874;2023-05-07T03:52:08;15.30;;;8.93;;
66546;SDS011;53400;50.364;14.874;2023-05-07T03:54:34;15.60;;;9.40;;
66546;SDS011;53400;50.364;14.874;2023-05-07T03:57:01;16.52;;;9.18;;
66546;SDS011;53400;50.364;14.874;2023-05-07T03:59:27;15.90;;;8.48;;
66546;SDS011;53400;50.364;14.874;2023-05-07T04:01:53;14.38;;;8.63;;
66546;SDS011;53400;50.364;14.874;2023-05-07T04:04:19;15.55;;;8.80;;
66546;SDS011;53400;50.364;14.874;2023-05-07T04:06:45;14.57;;;8.25;;
66546;SDS011;53400;50.364;14.874;2023-05-07T04:09:11;12.80;;;7.63;;
66546;SDS011;53400;50.364;14.874;2023-05-07T04:11:37;14.32;;;8.00;;
66546;SDS011;53400;50.364;14.874;2023-05-07T04:14:07;13.80;;;7.72;;
66546;SDS011;53400;50.364;14.874;2023-05-07T04:16:32;14.38;;;8.02;;
66546;SDS011;53400;50.364;14.874;2023-05-07T04:19:00;14.13;;;8.18;;
66546;SDS011;53400;50.364;14.874;2023-05-07T04:21:25;14.88;;;8.32;;
66546;SDS011;53400;50.364;14.874;2023-05-07T04:23:52;13.50;;;7.97;;
66546;SDS011;53400;50.364;14.874;2023-05-07T04:26:18;14.35;;;7.93;;
66546;SDS011;53400;50.364;14.874;2023-05-07T04:28:44;14.90;;;7.28;;
66546;SDS011;53400;50.364;14.874;2023-05-07T04:31:11;14.00;;;7.90;;
66546;SDS011;53400;50.364;14.874;2023-05-07T04:33:37;14.55;;;7.90;;
66546;SDS011;53400;50.364;14.874;2023-05-07T04:36:03;12.23;;;7.30;;
66546;SDS011;53400;50.364;14.874;2023-05-07T04:38:29;12.43;;;7.40;;
66546;SDS011;53400;50.364;14.874;2023-05-07T04:40:56;12.13;;;7.10;;
66546;SDS011;53400;50.364;14.874;2023-05-07T04:43:23;14.35;;;7.95;;
66546;SDS011;53400;50.364;14.874;2023-05-07T04:45:49;13.55;;;8.05;;
66546;SDS011;53400;50.364;14.874;2023-05-07T04:48:17;13.48;;;7.20;;
66546;SDS011;53400;50.364;14.874;2023-05-07T04:50:46;12.85;;;7.50;;
66546;SDS011;53400;50.364;14.874;2023-05-07T04:53:13;11.32;;;6.50;;
66546;SDS011;53400;50.364;14.874;2023-05-07T04:55:39;11.68;;;6.90;;
66546;SDS011;53400;50.364;14.874;2023-05-07T04:58:05;11.75;;;7.63;;
66546;SDS011;53400;50.364;14.874;2023-05-07T05:00:31;12.15;;;7.22;;
66546;SDS011;53400;50.364;14.874;2023-05-07T05:02:57;12.50;;;7.03;;
66546;SDS011;53400;50.364;14.874;2023-05-07T05:05:24;12.23;;;7.32;;
66546;SDS011;53400;50.364;14.874;2023-05-07T05:07:50;11.05;;;6.88;;
66546;SDS011;53400;50.364;14.874;2023-05-07T05:10:17;11.82;;;7.25;;
66546;SDS011;53400;50.364;14.874;2023-05-07T05:12:43;11.50;;;6.90;;
66546;SDS011;53400;50.364;14.874;2023-05-07T05:15:10;11.45;;;6.30;;
66546;SDS011;53400;50.364;14.874;2023-05-07T05:17:37;11.20;;;7.00;;
66546;SDS011;53400;50.364;14.874;2023-05-07T05:20:03;10.05;;;6.38;;
66546;SDS011;53400;50.364;14.874;2023-05-07T05:22:32;11.05;;;6.53;;
66546;SDS011;53400;50.364;14.874;2023-05-07T05:24:58;12.07;;;6.40;;
66546;SDS011;53400;50.364;14.874;2023-05-07T05:27:24;11.32;;;6.57;;
66546;SDS011;53400;50.364;14.874;2023-05-07T05:29:50;11.32;;;6.13;;
66546;SDS011;53400;50.364;14.874;2023-05-07T05:32:16;11.70;;;6.93;;
66546;SDS011;53400;50.364;14.874;2023-05-07T05:34:42;9.90;;;6.07;;
66546;SDS011;53400;50.364;14.874;2023-05-07T05:37:09;10.15;;;6.95;;
66546;SDS011;53400;50.364;14.874;2023-05-07T05:39:36;10.48;;;5.55;;
66546;SDS011;53400;50.364;14.874;2023-05-07T05:42:02;10.07;;;5.57;;
66546;SDS011;53400;50.364;14.874;2023-05-07T05:44:28;10.57;;;6.30;;
66546;SDS011;53400;50.364;14.874;2023-05-07T05:46:54;9.70;;;6.15;;
66546;SDS011;53400;50.364;14.874;2023-05-07T05:49:20;9.65;;;5.65;;
66546;SDS011;53400;50.364;14.874;2023-05-07T05:51:47;12.25;;;7.25;;
66546;SDS011;53400;50.364;14.874;2023-05-07T05:54:12;12.90;;;7.03;;
66546;SDS011;53400;50.364;14.874;2023-05-07T05:56:40;8.80;;;5.57;;
66546;SDS011;53400;50.364;14.874;2023-05-07T05:59:06;9.13;;;5.45;;
66546;SDS011;53400;50.364;14.874;2023-05-07T06:01:32;8.40;;;5.18;;
66546;SDS011;53400;50.364;14.874;2023-05-07T06:03:58;9.10;;;5.60;;
66546;SDS011;53400;50.364;14.874;2023-05-07T06:06:24;10.25;;;5.53;;
66546;SDS011;53400;50.364;14.874;2023-05-07T06:08:54;10.32;;;5.57;;
66546;SDS011;53400;50.364;14.874;2023-05-07T06:11:20;7.80;;;4.78;;
66546;SDS011;53400;50.364;14.874;2023-05-07T06:13:48;9.68;;;5.85;;
66546;SDS011;53400;50.364;14.874;2023-05-07T06:16:14;8.30;;;5.47;;
66546;SDS011;53400;50.364;14.874;2023-05-07T06:18:40;9.57;;;5.53;;
66546;SDS011;53400;50.364;14.874;2023-05-07T06:21:06;9.80;;;5.70;;
66546;SDS011;53400;50.364;14.874;2023-05-07T06:23:32;10.07;;;5.68;;
66546;SDS011;53400;50.364;14.874;2023-05-07T06:25:58;9.38;;;5.38;;
66546;SDS011;53400;50.364;14.874;2023-05-07T06:28:24;8.95;;;4.95;;
66546;SDS011;53400;50.364;14.874;2023-05-07T06:30:52;8.63;;;5.47;;
66546;SDS011;53400;50.364;14.874;2023-05-07T06:33:18;10.23;;;5.57;;
66546;SDS011;53400;50.364;14.874;2023-05-07T06:35:45;8.02;;;5.38;;
66546;SDS011;53400;50.364;14.874;2023-05-07T06:38:12;8.77;;;5.43;;
66546;SDS011;53400;50.364;14.874;2023-05-07T06:40:38;8.43;;;5.50;;
66546;SDS011;53400;50.364;14.874;2023-05-07T06:43:04;8.82;;;5.15;;
66546;SDS011;53400;50.364;14.874;2023-05-07T06:45:31;9.50;;;6.30;;
66546;SDS011;53400;50.364;14.874;2023-05-07T06:47:59;8.48;;;5.28;;
66546;SDS011;53400;50.364;14.874;2023-05-07T06:50:25;9.32;;;5.32;;
66546;SDS011;53400;50.364;14.874;2023-05-07T06:52:51;9.48;;;5.80;;
66546;SDS011;53400;50.364;14.874;2023-05-07T06:55:17;8.57;;;5.20;;
66546;SDS011;53400;50.364;14.874;2023-05-07T06:57:44;9.65;;;5.80;;
66546;SDS011;53400;50.364;14.874;2023-05-07T07:00:14;8.93;;;5.80;;
66546;SDS011;53400;50.364;14.874;2023-05-07T07:02:40;9.52;;;5.68;;
66546;SDS011;53400;50.364;14.874;2023-05-07T07:05:08;9.35;;;5.63;;
66546;SDS011;53400;50.364;14.874;2023-05-07T07:07:34;10.00;;;6.45;;
66546;SDS011;53400;50.364;14.874;2023-05-07T07:10:00;11.70;;;7.75;;
66546;SDS011;53400;50.364;14.874;2023-05-07T07:12:27;9.70;;;5.97;;
66546;SDS011;53400;50.364;14.874;2023-05-07T07:14:55;8.23;;;5.03;;
66546;SDS011;53400;50.364;14.874;2023-05-07T07:17:21;9.15;;;5.80;;
66546;SDS011;53400;50.364;14.874;2023-05-07T07:19:47;9.75;;;5.53;;
66546;SDS011;53400;50.364;14.874;2023-05-07T07:22:14;8.32;;;5.53;;
66546;SDS011;53400;50.364;14.874;2023-05-07T07:24:40;10.05;;;6.05;;
66546;SDS011;53400;50.364;14.874;2023-05-07T07:27:06;9.18;;;5.97;;
66546;SDS011;53400;50.364;14.874;2023-05-07T07:29:32;10.15;;;6.10;;
66546;SDS011;53400;50.364;14.874;2023-05-07T07:31:58;9.55;;;5.35;;
66546;SDS011;53400;50.364;14.874;2023-05-07T07:34:24;9.57;;;5.75;;
66546;SDS011;53400;50.364;14.874;2023-05-07T07:36:50;10.07;;;6.00;;
66546;SDS011;53400;50.364;14.874;2023-05-07T07:39:17;11.85;;;5.70;;
66546;SDS011;53400;50.364;14.874;2023-05-07T07:41:43;10.43;;;5.82;;
66546;SDS011;53400;50.364;14.874;2023-05-07T07:44:09;10.45;;;6.10;;
66546;SDS011;53400;50.364;14.874;2023-05-07T07:46:38;10.35;;;6.05;;
66546;SDS011;53400;50.364;14.874;2023-05-07T07:49:04;10.05;;;6.13;;
66546;SDS011;53400;50.364;14.874;2023-05-07T07:51:30;9.38;;;6.07;;
66546;SDS011;53400;50.364;14.874;2023-05-07T07:53:56;9.07;;;5.93;;
66546;SDS011;53400;50.364;14.874;2023-05-07T07:56:24;10.73;;;6.65;;
66546;SDS011;53400;50.364;14.874;2023-05-07T07:58:50;9.38;;;6.00;;
66546;SDS011;53400;50.364;14.874;2023-05-07T08:01:16;10.38;;;6.40;;
66546;SDS011;53400;50.364;14.874;2023-05-07T08:03:42;11.05;;;6.97;;
66546;SDS011;53400;50.364;14.874;2023-05-07T08:06:08;9.43;;;6.45;;
66546;SDS011;53400;50.364;14.874;2023-05-07T08:08:34;10.75;;;6.95;;
66546;SDS011;53400;50.364;14.874;2023-05-07T08:11:00;10.95;;;6.40;;
66546;SDS011;53400;50.364;14.874;2023-05-07T08:13:28;10.32;;;6.47;;
66546;SDS011;53400;50.364;14.874;2023-05-07T08:15:54;11.40;;;7.30;;
66546;SDS011;53400;50.364;14.874;2023-05-07T08:18:20;11.68;;;7.03;;
66546;SDS011;53400;50.364;14.874;2023-05-07T08:20:46;10.82;;;6.82;;
66546;SDS011;53400;50.364;14.874;2023-05-07T08:23:12;10.25;;;7.07;;
66546;SDS011;53400;50.364;14.874;2023-05-07T08:25:39;10.57;;;6.88;;
66546;SDS011;53400;50.364;14.874;2023-05-07T08:28:05;11.02;;;6.28;;
66546;SDS011;53400;50.364;14.874;2023-05-07T08:30:32;10.57;;;7.18;;
66546;SDS011;53400;50.364;14.874;2023-05-07T08:32:59;11.15;;;6.50;;
66546;SDS011;53400;50.364;14.874;2023-05-07T08:35:25;11.45;;;6.78;;
66546;SDS011;53400;50.364;14.874;2023-05-07T08:37:52;12.80;;;7.07;;
66546;SDS011;53400;50.364;14.874;2023-05-07T08:40:18;15.18;;;6.90;;
66546;SDS011;53400;50.364;14.874;2023-05-07T08:42:44;10.98;;;6.70;;
66546;SDS011;53400;50.364;14.874;2023-05-07T08:45:14;12.27;;;6.93;;
66546;SDS011;53400;50.364;14.874;2023-05-07T08:47:43;11.30;;;6.93;;
66546;SDS011;53400;50.364;14.874;2023-05-07T08:50:11;10.70;;;6.75;;
66546;SDS011;53400;50.364;14.874;2023-05-07T08:52:38;10.90;;;6.53;;
66546;SDS011;53400;50.364;14.874;2023-05-07T08:55:05;9.75;;;5.90;;
66546;SDS011;53400;50.364;14.874;2023-05-07T08:57:34;9.60;;;6.32;;
66546;SDS011;53400;50.364;14.874;2023-05-07T09:00:01;9.65;;;6.00;;
66546;SDS011;53400;50.364;14.874;2023-05-07T09:02:28;9.75;;;6.10;;
66546;SDS011;53400;50.364;14.874;2023-05-07T09:04:56;9.70;;;6.35;;
66546;SDS011;53400;50.364;14.874;2023-05-07T09:07:22;9.57;;;6.20;;
66546;SDS011;53400;50.364;14.874;2023-05-07T09:09:50;10.45;;;6.43;;
66546;SDS011;53400;50.364;14.874;2023-05-07T09:12:17;10.05;;;6.32;;
66546;SDS011;53400;50.364;14.874;2023-05-07T09:14:43;9.88;;;6.60;;
66546;SDS011;53400;50.364;14.874;2023-05-07T09:17:09;11.07;;;7.28;;
66546;SDS011;53400;50.364;14.874;2023-05-07T09:19:35;10.77;;;7.30;;
66546;SDS011;53400;50.364;14.874;2023-05-07T09:22:03;10.48;;;7.13;;
66546;SDS011;53400;50.364;14.874;2023-05-07T09:24:30;10.77;;;6.93;;
66546;SDS011;53400;50.364;14.874;2023-05-07T09:27:00;10.52;;;7.38;;
66546;SDS011;53400;50.364;14.874;2023-05-07T09:29:26;10.65;;;7.00;;
66546;SDS011;53400;50.364;14.874;2023-05-07T09:31:54;12.10;;;7.65;;
66546;SDS011;53400;50.364;14.874;2023-05-07T09:34:20;11.90;;;6.75;;
66546;SDS011;53400;50.364;14.874;2023-05-07T09:36:46;10.10;;;6.60;;
66546;SDS011;53400;50.364;14.874;2023-05-07T09:39:13;9.82;;;6.45;;
66546;SDS011;53400;50.364;14.874;2023-05-07T09:41:43;11.82;;;6.82;;
66546;SDS011;53400;50.364;14.874;2023-05-07T09:44:10;10.75;;;6.80;;
66546;SDS011;53400;50.364;14.874;2023-05-07T09:46:36;11.18;;;6.45;;
66546;SDS011;53400;50.364;14.874;2023-05-07T09:49:04;8.82;;;5.95;;
66546;SDS011;53400;50.364;14.874;2023-05-07T09:51:37;9.48;;;5.65;;
66546;SDS011;53400;50.364;14.874;2023-05-07T09:54:06;8.73;;;5.33;;
66546;SDS011;53400;50.364;14.874;2023-05-07T09:56:34;7.82;;;4.28;;
66546;SDS011;53400;50.364;14.874;2023-05-07T09:59:03;13.02;;;8.90;;
66546;SDS011;53400;50.364;14.874;2023-05-07T10:01:31;7.25;;;4.25;;
66546;SDS011;53400;50.364;14.874;2023-05-07T10:04:01;7.57;;;4.40;;
66546;SDS011;53400;50.364;14.874;2023-05-07T10:06:29;5.80;;;3.75;;
66546;SDS011;53400;50.364;14.874;2023-05-07T10:08:56;6.63;;;3.88;;
66546;SDS011;53400;50.364;14.874;2023-05-07T10:11:23;5.93;;;3.75;;
66546;SDS011;53400;50.364;14.874;2023-05-07T10:13:50;6.35;;;3.90;;
66546;SDS011;53400;50.364;14.874;2023-05-07T10:16:18;6.18;;;3.58;;
66546;SDS011;53400;50.364;14.874;2023-05-07T10:18:44;6.80;;;3.80;;
66546;SDS011;53400;50.364;14.874;2023-05-07T10:21:11;6.40;;;3.60;;
66546;SDS011;53400;50.364;14.874;2023-05-07T10:23:41;5.53;;;3.20;;
66546;SDS011;53400;50.364;14.874;2023-05-07T10:26:11;5.72;;;3.35;;
66546;SDS011;53400;50.364;14.874;2023-05-07T10:28:39;5.60;;;3.22;;
66546;SDS011;53400;50.364;14.874;2023-05-07T10:31:14;5.70;;;3.40;;
66546;SDS011;53400;50.364;14.874;2023-05-07T10:33:48;6.25;;;3.50;;
66546;SDS011;53400;50.364;14.874;2023-05-07T10:36:18;5.75;;;3.53;;
66546;SDS011;53400;50.364;14.874;2023-05-07T10:38:46;5.93;;;3.38;;
66546;SDS011;53400;50.364;14.874;2023-05-07T10:41:13;6.25;;;3.65;;
66546;SDS011;53400;50.364;14.874;2023-05-07T10:43:40;5.75;;;3.47;;
66546;SDS011;53400;50.364;14.874;2023-05-07T10:46:17;6.35;;;4.10;;
66546;SDS011;53400;50.364;14.874;2023-05-07T10:51:35;6.75;;;4.28;;
66546;SDS011;53400;50.364;14.874;2023-05-07T10:54:20;6.00;;;4.10;;
66546;SDS011;53400;50.364;14.874;2023-05-07T10:56:47;6.78;;;3.85;;
66546;SDS011;53400;50.364;14.874;2023-05-07T10:59:31;7.35;;;4.00;;
66546;SDS011;53400;50.364;14.874;2023-05-07T11:02:08;6.78;;;4.20;;
66546;SDS011;53400;50.364;14.874;2023-05-07T11:04:36;6.57;;;4.00;;
66546;SDS011;53400;50.364;14.874;2023-05-07T11:09:58;7.70;;;4.50;;
66546;SDS011;53400;50.364;14.874;2023-05-07T11:12:50;6.55;;;4.13;;
66546;SDS011;53400;50.364;14.874;2023-05-07T11:18:15;6.72;;;4.40;;
66546;SDS011;53400;50.364;14.874;2023-05-07T11:26:22;6.55;;;3.80;;
66546;SDS011;53400;50.364;14.874;2023-05-07T11:28:51;6.22;;;3.67;;
66546;SDS011;53400;50.364;14.874;2023-05-07T11:31:22;8.13;;;4.43;;
66546;SDS011;53400;50.364;14.874;2023-05-07T11:33:51;6.22;;;3.88;;
66546;SDS011;53400;50.364;14.874;2023-05-07T11:36:18;6.70;;;3.28;;
66546;SDS011;53400;50.364;14.874;2023-05-07T11:38:46;7.00;;;4.18;;
66546;SDS011;53400;50.364;14.874;2023-05-07T11:41:12;6.82;;;4.20;;
66546;SDS011;53400;50.364;14.874;2023-05-07T11:43:40;6.90;;;4.00;;
66546;SDS011;53400;50.364;14.874;2023-05-07T11:46:20;6.93;;;3.92;;
66546;SDS011;53400;50.364;14.874;2023-05-07T11:48:46;6.43;;;3.63;;
66546;SDS011;53400;50.364;14.874;2023-05-07T11:51:14;6.85;;;4.22;;
66546;SDS011;53400;50.364;14.874;2023-05-07T11:53:48;7.20;;;4.30;;
66546;SDS011;53400;50.364;14.874;2023-05-07T11:56:15;6.93;;;4.25;;
66546;SDS011;53400;50.364;14.874;2023-05-07T11:58:43;6.20;;;3.60;;
66546;SDS011;53400;50.364;14.874;2023-05-07T12:01:10;7.32;;;4.13;;
66546;SDS011;53400;50.364;14.874;2023-05-07T12:03:39;7.35;;;4.15;;
66546;SDS011;53400;50.364;14.874;2023-05-07T12:06:07;6.60;;;4.07;;
66546;SDS011;53400;50.364;14.874;2023-05-07T12:08:37;7.38;;;4.25;;
66546;SDS011;53400;50.364;14.874;2023-05-07T12:11:03;6.70;;;3.97;;
66546;SDS011;53400;50.364;14.874;2023-05-07T12:13:33;7.18;;;4.50;;
66546;SDS011;53400;50.364;14.874;2023-05-07T12:15:59;6.60;;;4.05;;
66546;SDS011;53400;50.364;14.874;2023-05-07T12:18:28;7.22;;;4.20;;
66546;SDS011;53400;50.364;14.874;2023-05-07T12:20:55;7.55;;;4.75;;
66546;SDS011;53400;50.364;14.874;2023-05-07T12:23:22;6.97;;;4.35;;
66546;SDS011;53400;50.364;14.874;2023-05-07T12:25:49;7.80;;;4.68;;
66546;SDS011;53400;50.364;14.874;2023-05-07T12:28:16;7.53;;;4.72;;
66546;SDS011;53400;50.364;14.874;2023-05-07T12:30:43;7.00;;;4.22;;
66546;SDS011;53400;50.364;14.874;2023-05-07T12:33:10;8.32;;;4.85;;
66546;SDS011;53400;50.364;14.874;2023-05-07T12:35:37;8.80;;;5.10;;
66546;SDS011;53400;50.364;14.874;2023-05-07T12:38:07;7.93;;;5.30;;
66546;SDS011;53400;50.364;14.874;2023-05-07T12:40:39;8.55;;;5.10;;
66546;SDS011;53400;50.364;14.874;2023-05-07T12:43:15;7.22;;;4.82;;
66546;SDS011;53400;50.364;14.874;2023-05-07T12:45:43;7.95;;;5.10;;
66546;SDS011;53400;50.364;14.874;2023-05-07T12:48:09;7.95;;;5.15;;
66546;SDS011;53400;50.364;14.874;2023-05-07T12:50:38;9.10;;;5.63;;
66546;SDS011;53400;50.364;14.874;2023-05-07T12:53:04;8.85;;;5.00;;
66546;SDS011;53400;50.364;14.874;2023-05-07T12:55:39;7.97;;;4.80;;
66546;SDS011;53400;50.364;14.874;2023-05-07T12:58:07;7.70;;;4.22;;
66546;SDS011;53400;50.364;14.874;2023-05-07T13:00:35;7.13;;;4.70;;
66546;SDS011;53400;50.364;14.874;2023-05-07T13:03:02;9.95;;;5.25;;
66546;SDS011;53400;50.364;14.874;2023-05-07T13:05:28;7.20;;;4.38;;
66546;SDS011;53400;50.364;14.874;2023-05-07T13:07:55;8.15;;;5.00;;
66546;SDS011;53400;50.364;14.874;2023-05-07T13:10:22;7.25;;;4.60;;
66546;SDS011;53400;50.364;14.874;2023-05-07T13:12:48;6.60;;;4.25;;
66546;SDS011;53400;50.364;14.874;2023-05-07T13:15:17;7.63;;;4.75;;
66546;SDS011;53400;50.364;14.874;2023-05-07T13:17:45;6.75;;;4.05;;
66546;SDS011;53400;50.364;14.874;2023-05-07T13:20:12;7.97;;;5.05;;
66546;SDS011;53400;50.364;14.874;2023-05-07T13:22:38;7.28;;;4.80;;
66546;SDS011;53400;50.364;14.874;2023-05-07T13:25:05;7.65;;;4.60;;
66546;SDS011;53400;50.364;14.874;2023-05-07T13:27:32;7.10;;;4.60;;
66546;SDS011;53400;50.364;14.874;2023-05-07T13:30:00;6.90;;;5.05;;
66546;SDS011;53400;50.364;14.874;2023-05-07T13:32:26;7.07;;;4.88;;
66546;SDS011;53400;50.364;14.874;2023-05-07T13:34:53;8.15;;;5.18;;
66546;SDS011;53400;50.364;14.874;2023-05-07T13:37:20;7.60;;;4.65;;
66546;SDS011;53400;50.364;14.874;2023-05-07T13:39:45;8.15;;;4.78;;
66546;SDS011;53400;50.364;14.874;2023-05-07T13:42:11;7.75;;;4.72;;
66546;SDS011;53400;50.364;14.874;2023-05-07T13:44:37;6.47;;;4.80;;
66546;SDS011;53400;50.364;14.874;2023-05-07T13:47:03;6.68;;;4.25;;
66546;SDS011;53400;50.364;14.874;2023-05-07T13:49:29;6.88;;;4.63;;
66546;SDS011;53400;50.364;14.874;2023-05-07T13:51:57;6.75;;;4.20;;
66546;SDS011;53400;50.364;14.874;2023-05-07T13:54:23;6.85;;;4.40;;
66546;SDS011;53400;50.364;14.874;2023-05-07T13:56:49;7.60;;;4.68;;
66546;SDS011;53400;50.364;14.874;2023-05-07T13:59:15;7.10;;;5.15;;
66546;SDS011;53400;50.364;14.874;2023-05-07T14:01:40;6.82;;;4.88;;
66546;SDS011;53400;50.364;14.874;2023-05-07T14:04:06;6.47;;;4.30;;
66546;SDS011;53400;50.364;14.874;2023-05-07T14:06:33;6.85;;;4.15;;
66546;SDS011;53400;50.364;14.874;2023-05-07T14:09:00;7.15;;;4.50;;
66546;SDS011;53400;50.364;14.874;2023-05-07T14:11:26;6.55;;;4.25;;
66546;SDS011;53400;50.364;14.874;2023-05-07T14:13:52;7.38;;;4.65;;
66546;SDS011;53400;50.364;14.874;2023-05-07T14:16:18;7.03;;;4.60;;
66546;SDS011;53400;50.364;14.874;2023-05-07T14:18:44;7.00;;;4.15;;
66546;SDS011;53400;50.364;14.874;2023-05-07T14:21:10;7.22;;;4.38;;
66546;SDS011;53400;50.364;14.874;2023-05-07T14:23:36;6.70;;;4.45;;
66546;SDS011;53400;50.364;14.874;2023-05-07T14:26:04;6.90;;;4.30;;
66546;SDS011;53400;50.364;14.874;2023-05-07T14:28:30;6.82;;;4.57;;
66546;SDS011;53400;50.364;14.874;2023-05-07T14:30:56;8.00;;;5.00;;
66546;SDS011;53400;50.364;14.874;2023-05-07T14:33:22;7.20;;;4.95;;
66546;SDS011;53400;50.364;14.874;2023-05-07T14:35:48;8.10;;;5.88;;
66546;SDS011;53400;50.364;14.874;2023-05-07T14:38:15;6.03;;;4.43;;
66546;SDS011;53400;50.364;14.874;2023-05-07T14:40:41;5.72;;;3.72;;
66546;SDS011;53400;50.364;14.874;2023-05-07T14:43:08;6.40;;;4.40;;